GEC9340 KMCO-LEMD
Flight info
| Callsign | GEC9340 |
|---|---|
| Flight time | N/A |
| Altitude | 35000 |
| Route | MZULO3 ETECK DCT KR90W DCT JAINS/M083F350 DCT 37N068W DCT 3760N DCT 3850N DCT 3940N/M083F370 DCT 3930N DCT 4020N DCT ERPES/N0471F380 DCT BARDI M191 RIDAV |
| Aircraft | B77L/H-SDE2E3FGHIJ1J3J4J5M1P2RWXYZ/LB1D1 |
Departure
| Time | 2026-04-22 07:08 |
|---|---|
| Airport | Orlando International Airport (KMCO) |
Arrival
| Time | N/A |
|---|---|
| Airport | Adolfo Suárez Madrid–Barajas Airport (LEMD) |
| Time | Latitude | Longitude | Altitude | Speed | Heading |
|---|---|---|---|---|---|
| 2026-04-22 06:28 | 28.41474 | -81.33428 | 105 ft | 0 kts | 359° |
| 2026-04-22 06:38 | 28.41471 | -81.33428 | 105 ft | 2 kts | 359° |
| 2026-04-22 06:38 | 28.41453 | -81.33428 | 105 ft | 3 kts | 359° |
| 2026-04-22 06:39 | 28.41436 | -81.33428 | 107 ft | 2 kts | 359° |
| 2026-04-22 06:39 | 28.41421 | -81.33428 | 105 ft | 3 kts | 31° |
| 2026-04-22 06:39 | 28.41411 | -81.33442 | 105 ft | 3 kts | 91° |
| 2026-04-22 06:39 | 28.41411 | -81.33447 | 105 ft | 0 kts | 91° |
| 2026-04-22 06:45 | 28.41411 | -81.33446 | 105 ft | 1 kts | 91° |
| 2026-04-22 06:45 | 28.41409 | -81.33423 | 106 ft | 5 kts | 99° |
| 2026-04-22 06:46 | 28.41405 | -81.33382 | 106 ft | 7 kts | 93° |
| 2026-04-22 06:46 | 28.41404 | -81.33297 | 107 ft | 12 kts | 89° |
| 2026-04-22 06:46 | 28.41405 | -81.33203 | 108 ft | 12 kts | 89° |
| 2026-04-22 06:46 | 28.41405 | -81.33136 | 108 ft | 6 kts | 89° |
| 2026-04-22 06:47 | 28.41406 | -81.33091 | 109 ft | 6 kts | 89° |
| 2026-04-22 06:47 | 28.41416 | -81.33049 | 110 ft | 6 kts | 63° |
| 2026-04-22 06:47 | 28.41441 | -81.33016 | 111 ft | 6 kts | 47° |
| 2026-04-22 06:47 | 28.41469 | -81.32984 | 112 ft | 6 kts | 45° |
| 2026-04-22 06:48 | 28.41497 | -81.32953 | 108 ft | 6 kts | 45° |
| 2026-04-22 06:48 | 28.41525 | -81.32917 | 110 ft | 8 kts | 56° |
| 2026-04-22 06:48 | 28.41538 | -81.32828 | 109 ft | 13 kts | 89° |
| 2026-04-22 06:48 | 28.41538 | -81.32717 | 110 ft | 17 kts | 88° |
| 2026-04-22 06:49 | 28.41540 | -81.32551 | 110 ft | 22 kts | 90° |
| 2026-04-22 06:49 | 28.41540 | -81.32370 | 106 ft | 23 kts | 89° |
| 2026-04-22 06:49 | 28.41544 | -81.32187 | 106 ft | 23 kts | 89° |
| 2026-04-22 06:49 | 28.41545 | -81.32030 | 104 ft | 20 kts | 90° |
| 2026-04-22 06:50 | 28.41549 | -81.31913 | 103 ft | 9 kts | 73° |
| 2026-04-22 06:50 | 28.41601 | -81.31876 | 104 ft | 9 kts | 7° |
| 2026-04-22 06:50 | 28.41677 | -81.31874 | 107 ft | 14 kts | 0° |
| 2026-04-22 06:50 | 28.41785 | -81.31875 | 107 ft | 16 kts | 359° |
| 2026-04-22 06:51 | 28.41893 | -81.31876 | 107 ft | 16 kts | 359° |
| 2026-04-22 06:51 | 28.42002 | -81.31878 | 107 ft | 16 kts | 359° |
| 2026-04-22 06:51 | 28.42110 | -81.31874 | 109 ft | 16 kts | 7° |
| 2026-04-22 06:51 | 28.42210 | -81.31847 | 108 ft | 11 kts | 13° |
| 2026-04-22 06:52 | 28.42269 | -81.31833 | 111 ft | 9 kts | 8° |
| 2026-04-22 06:52 | 28.42329 | -81.31826 | 108 ft | 9 kts | 22° |
| 2026-04-22 06:52 | 28.42347 | -81.31760 | 108 ft | 11 kts | 88° |
| 2026-04-22 06:52 | 28.42348 | -81.31638 | 106 ft | 18 kts | 90° |
| 2026-04-22 06:53 | 28.42349 | -81.31489 | 103 ft | 19 kts | 90° |
| 2026-04-22 06:53 | 28.42350 | -81.31337 | 100 ft | 20 kts | 89° |
| 2026-04-22 06:53 | 28.42340 | -81.31183 | 99 ft | 20 kts | 98° |
| 2026-04-22 06:53 | 28.42318 | -81.31031 | 97 ft | 20 kts | 95° |
| 2026-04-22 06:54 | 28.42322 | -81.30877 | 97 ft | 20 kts | 85° |
| 2026-04-22 06:54 | 28.42334 | -81.30723 | 110 ft | 20 kts | 85° |
| 2026-04-22 06:54 | 28.42344 | -81.30568 | 110 ft | 20 kts | 86° |
| 2026-04-22 06:54 | 28.42354 | -81.30417 | 104 ft | 23 kts | 86° |
| 2026-04-22 06:55 | 28.42360 | -81.30239 | 108 ft | 23 kts | 88° |
| 2026-04-22 06:55 | 28.42361 | -81.30060 | 108 ft | 23 kts | 90° |
| 2026-04-22 06:55 | 28.42363 | -81.29882 | 107 ft | 23 kts | 89° |
| 2026-04-22 06:55 | 28.42364 | -81.29768 | 106 ft | 7 kts | 89° |
| 2026-04-22 06:56 | 28.42376 | -81.29713 | 106 ft | 7 kts | 51° |
| 2026-04-22 06:56 | 28.42425 | -81.29701 | 107 ft | 8 kts | 0° |
| 2026-04-22 06:56 | 28.42500 | -81.29701 | 108 ft | 15 kts | 0° |
| 2026-04-22 06:56 | 28.42637 | -81.29702 | 106 ft | 24 kts | 359° |
| 2026-04-22 06:57 | 28.42818 | -81.29705 | 108 ft | 26 kts | 359° |
| 2026-04-22 06:57 | 28.43001 | -81.29706 | 108 ft | 26 kts | 360° |
| 2026-04-22 06:57 | 28.43183 | -81.29708 | 109 ft | 26 kts | 359° |
| 2026-04-22 06:57 | 28.43364 | -81.29710 | 109 ft | 22 kts | 360° |
| 2026-04-22 06:58 | 28.43479 | -81.29712 | 108 ft | 11 kts | 359° |
| 2026-04-22 06:58 | 28.43534 | -81.29705 | 107 ft | 8 kts | 31° |
| 2026-04-22 06:58 | 28.43549 | -81.29644 | 108 ft | 8 kts | 86° |
| 2026-04-22 06:58 | 28.43551 | -81.29558 | 109 ft | 15 kts | 89° |
| 2026-04-22 06:59 | 28.43553 | -81.29410 | 111 ft | 21 kts | 89° |
| 2026-04-22 06:59 | 28.43558 | -81.29302 | 109 ft | 8 kts | 75° |
| 2026-04-22 06:59 | 28.43599 | -81.29265 | 107 ft | 8 kts | 11° |
| 2026-04-22 06:59 | 28.43667 | -81.29262 | 107 ft | 14 kts | 359° |
| 2026-04-22 07:00 | 28.43789 | -81.29264 | 106 ft | 11 kts | 359° |
| 2026-04-22 07:00 | 28.43851 | -81.29255 | 104 ft | 9 kts | 31° |
| 2026-04-22 07:00 | 28.43870 | -81.29187 | 104 ft | 9 kts | 90° |
| 2026-04-22 07:00 | 28.43870 | -81.29106 | 106 ft | 11 kts | 89° |
| 2026-04-22 07:01 | 28.43871 | -81.29008 | 111 ft | 16 kts | 89° |
| 2026-04-22 07:01 | 28.43873 | -81.28858 | 111 ft | 20 kts | 90° |
| 2026-04-22 07:01 | 28.43874 | -81.28706 | 111 ft | 15 kts | 89° |
| 2026-04-22 07:01 | 28.43875 | -81.28585 | 109 ft | 15 kts | 90° |
| 2026-04-22 07:02 | 28.43876 | -81.28477 | 111 ft | 10 kts | 89° |
| 2026-04-22 07:02 | 28.43876 | -81.28412 | 112 ft | 5 kts | 96° |
| 2026-04-22 07:02 | 28.43849 | -81.28384 | 111 ft | 6 kts | 158° |
| 2026-04-22 07:02 | 28.43771 | -81.28377 | 109 ft | 17 kts | 179° |
| 2026-04-22 07:03 | 28.43621 | -81.28375 | 108 ft | 24 kts | 179° |
| 2026-04-22 07:03 | 28.43456 | -81.28373 | 105 ft | 24 kts | 179° |
| 2026-04-22 07:03 | 28.43290 | -81.28371 | 102 ft | 24 kts | 179° |
| 2026-04-22 07:03 | 28.43124 | -81.28370 | 104 ft | 24 kts | 179° |
| 2026-04-22 07:04 | 28.42996 | -81.28369 | 104 ft | 24 kts | 179° |
| 2026-04-22 07:04 | 28.42830 | -81.28367 | 106 ft | 24 kts | 180° |
| 2026-04-22 07:04 | 28.42665 | -81.28366 | 111 ft | 24 kts | 179° |
| 2026-04-22 07:04 | 28.42499 | -81.28364 | 111 ft | 24 kts | 180° |
| 2026-04-22 07:05 | 28.42336 | -81.28362 | 112 ft | 24 kts | 179° |
| 2026-04-22 07:05 | 28.42170 | -81.28360 | 111 ft | 24 kts | 179° |
| 2026-04-22 07:05 | 28.42008 | -81.28359 | 107 ft | 15 kts | 179° |
| 2026-04-22 07:05 | 28.41958 | -81.28358 | 106 ft | 6 kts | 179° |
| 2026-04-22 07:06 | 28.41919 | -81.28345 | 106 ft | 7 kts | 135° |
| 2026-04-22 07:06 | 28.41909 | -81.28275 | 106 ft | 6 kts | 79° |
| 2026-04-22 07:06 | 28.41936 | -81.28239 | 107 ft | 6 kts | 21° |
| 2026-04-22 07:06 | 28.41966 | -81.28235 | 108 ft | 0 kts | 3° |
| 2026-04-22 07:07 | 28.41977 | -81.28234 | 108 ft | 4 kts | 1° |
| 2026-04-22 07:07 | 28.41988 | -81.28234 | 109 ft | 0 kts | 0° |
| 2026-04-22 07:07 | 28.42034 | -81.28235 | 109 ft | 19 kts | 360° |
| 2026-04-22 07:07 | 28.42373 | -81.28238 | 110 ft | 86 kts | 359° |
| 2026-04-22 07:08 | 28.42876 | -81.28243 | 108 ft | 133 kts | 360° |
| 2026-04-22 07:08 | 28.43999 | -81.28257 | 216 ft | 178 kts | 359° |
| 2026-04-22 07:08 | 28.45267 | -81.28264 | 750 ft | 187 kts | 4° |
| 2026-04-22 07:08 | 28.46502 | -81.27734 | 1203 ft | 201 kts | 39° |
| 2026-04-22 07:09 | 28.47428 | -81.26440 | 1429 ft | 222 kts | 56° |
| 2026-04-22 07:09 | 28.48361 | -81.24920 | 1843 ft | 243 kts | 54° |
| 2026-04-22 07:09 | 28.49366 | -81.23332 | 2661 ft | 249 kts | 54° |
| 2026-04-22 07:09 | 28.50283 | -81.21677 | 3599 ft | 248 kts | 68° |
| 2026-04-22 07:10 | 28.50669 | -81.19765 | 4457 ft | 249 kts | 79° |
| 2026-04-22 07:10 | 28.50999 | -81.17790 | 5075 ft | 258 kts | 79° |
| 2026-04-22 07:10 | 28.51240 | -81.15762 | 5289 ft | 261 kts | 89° |
| 2026-04-22 07:10 | 28.51167 | -81.13700 | 5649 ft | 259 kts | 93° |
| 2026-04-22 07:11 | 28.51046 | -81.11655 | 6581 ft | 260 kts | 92° |
| 2026-04-22 07:11 | 28.50944 | -81.09616 | 7432 ft | 264 kts | 92° |
| 2026-04-22 07:11 | 28.50852 | -81.07451 | 7843 ft | 287 kts | 91° |
| 2026-04-22 07:11 | 28.50761 | -81.05070 | 8151 ft | 312 kts | 91° |
| 2026-04-22 07:12 | 28.50626 | -81.02568 | 8863 ft | 323 kts | 95° |
| 2026-04-22 07:12 | 28.50287 | -81.00008 | 9680 ft | 330 kts | 98° |
| 2026-04-22 07:12 | 28.49876 | -80.97421 | 10499 ft | 338 kts | 99° |
| 2026-04-22 07:12 | 28.49446 | -80.94702 | 10852 ft | 359 kts | 98° |
| 2026-04-22 07:13 | 28.49013 | -80.91862 | 11486 ft | 370 kts | 98° |
| 2026-04-22 07:13 | 28.48589 | -80.88968 | 12219 ft | 377 kts | 98° |
| 2026-04-22 07:13 | 28.48161 | -80.86006 | 13016 ft | 382 kts | 98° |
| 2026-04-22 07:13 | 28.47742 | -80.83003 | 13766 ft | 386 kts | 96° |
| 2026-04-22 07:14 | 28.47738 | -80.79940 | 14285 ft | 393 kts | 82° |
| 2026-04-22 07:14 | 28.48116 | -80.76848 | 14948 ft | 399 kts | 80° |
| 2026-04-22 07:14 | 28.48535 | -80.73703 | 15687 ft | 404 kts | 80° |
| 2026-04-22 07:14 | 28.48946 | -80.70525 | 16380 ft | 409 kts | 81° |
| 2026-04-22 07:15 | 28.49342 | -80.67295 | 17024 ft | 415 kts | 81° |
| 2026-04-22 07:15 | 28.49726 | -80.64012 | 17648 ft | 422 kts | 81° |
| 2026-04-22 07:15 | 28.50101 | -80.60687 | 18265 ft | 427 kts | 81° |
| 2026-04-22 07:15 | 28.50476 | -80.57301 | 18869 ft | 433 kts | 81° |
| 2026-04-22 07:16 | 28.50852 | -80.53883 | 19465 ft | 438 kts | 81° |
| 2026-04-22 07:16 | 28.51231 | -80.50419 | 20021 ft | 444 kts | 81° |
| 2026-04-22 07:16 | 28.51614 | -80.46911 | 20575 ft | 450 kts | 81° |
| 2026-04-22 07:16 | 28.52003 | -80.43356 | 21115 ft | 455 kts | 81° |
| 2026-04-22 07:17 | 28.52394 | -80.39763 | 21626 ft | 460 kts | 81° |
| 2026-04-22 07:17 | 28.52785 | -80.36176 | 22121 ft | 466 kts | 81° |
| 2026-04-22 07:17 | 28.53184 | -80.32498 | 22621 ft | 470 kts | 81° |
| 2026-04-22 07:17 | 28.53656 | -80.28796 | 23088 ft | 474 kts | 75° |
| 2026-04-22 07:18 | 28.54708 | -80.25243 | 23492 ft | 476 kts | 64° |
| 2026-04-22 07:18 | 28.56067 | -80.21785 | 23970 ft | 479 kts | 62° |
| 2026-04-22 07:18 | 28.57482 | -80.18330 | 24451 ft | 483 kts | 62° |
| 2026-04-22 07:18 | 28.58896 | -80.14852 | 24910 ft | 487 kts | 62° |
| 2026-04-22 07:19 | 28.60302 | -80.11309 | 25375 ft | 492 kts | 63° |
| 2026-04-22 07:19 | 28.61690 | -80.07725 | 25842 ft | 496 kts | 63° |
| 2026-04-22 07:19 | 28.63065 | -80.04115 | 26288 ft | 499 kts | 63° |
| 2026-04-22 07:19 | 28.64441 | -80.00466 | 26708 ft | 503 kts | 64° |
| 2026-04-22 07:20 | 28.65820 | -79.96793 | 27137 ft | 507 kts | 63° |
| 2026-04-22 07:20 | 28.67194 | -79.93132 | 27544 ft | 510 kts | 63° |
| 2026-04-22 07:20 | 28.68596 | -79.89399 | 27955 ft | 514 kts | 63° |
| 2026-04-22 07:20 | 28.70006 | -79.85647 | 28355 ft | 517 kts | 63° |
| 2026-04-22 07:21 | 28.71423 | -79.81873 | 28738 ft | 520 kts | 63° |
| 2026-04-22 07:21 | 28.72853 | -79.78065 | 29095 ft | 523 kts | 63° |
| 2026-04-22 07:21 | 28.74293 | -79.74227 | 29441 ft | 526 kts | 63° |
| 2026-04-22 07:21 | 28.75732 | -79.70384 | 29779 ft | 529 kts | 63° |
| 2026-04-22 07:22 | 28.77162 | -79.66560 | 30177 ft | 530 kts | 63° |
| 2026-04-22 07:22 | 28.78606 | -79.62693 | 30661 ft | 528 kts | 63° |
| 2026-04-22 07:22 | 28.80041 | -79.58850 | 31165 ft | 526 kts | 63° |
| 2026-04-22 07:22 | 28.81549 | -79.55060 | 31632 ft | 520 kts | 57° |
| 2026-04-22 07:23 | 28.83473 | -79.51592 | 32007 ft | 516 kts | 50° |
| 2026-04-22 07:23 | 28.85590 | -79.48293 | 32392 ft | 514 kts | 48° |
| 2026-04-22 07:23 | 28.87759 | -79.45056 | 32795 ft | 513 kts | 48° |
| 2026-04-22 07:23 | 28.89891 | -79.41870 | 33168 ft | 512 kts | 48° |
| 2026-04-22 07:24 | 28.92031 | -79.38610 | 33562 ft | 511 kts | 49° |
| 2026-04-22 07:24 | 28.94132 | -79.35338 | 33922 ft | 511 kts | 50° |
| 2026-04-22 07:24 | 28.96210 | -79.32049 | 34268 ft | 510 kts | 50° |
| 2026-04-22 07:24 | 28.98273 | -79.28751 | 34599 ft | 510 kts | 50° |
| 2026-04-22 07:25 | 29.00333 | -79.25445 | 34871 ft | 510 kts | 50° |
| 2026-04-22 07:25 | 29.02392 | -79.22138 | 35113 ft | 511 kts | 50° |
| 2026-04-22 07:25 | 29.04466 | -79.18809 | 35188 ft | 516 kts | 50° |
| 2026-04-22 07:26 | 29.08611 | -79.12159 | 35244 ft | 516 kts | 50° |
| 2026-04-22 07:26 | 29.12758 | -79.05494 | 35242 ft | 511 kts | 50° |
| 2026-04-22 07:27 | 29.16880 | -78.98865 | 35258 ft | 509 kts | 50° |
| 2026-04-22 07:27 | 29.20973 | -78.92275 | 35256 ft | 509 kts | 50° |
| 2026-04-22 07:28 | 29.27126 | -78.82345 | 35249 ft | 510 kts | 50° |
| 2026-04-22 07:28 | 29.31236 | -78.75697 | 35252 ft | 511 kts | 50° |
| 2026-04-22 07:29 | 29.35319 | -78.69082 | 35252 ft | 512 kts | 50° |
| 2026-04-22 07:29 | 29.39509 | -78.62457 | 35255 ft | 512 kts | 48° |
| 2026-04-22 07:30 | 29.43837 | -78.55964 | 35262 ft | 512 kts | 47° |
| 2026-04-22 07:30 | 29.48148 | -78.49420 | 35254 ft | 512 kts | 46° |
| 2026-04-22 07:31 | 29.53185 | -78.43895 | 35264 ft | 500 kts | 32° |
| 2026-04-22 07:31 | 29.58679 | -78.39010 | 35259 ft | 499 kts | 32° |
| 2026-04-22 07:32 | 29.64138 | -78.34054 | 35254 ft | 501 kts | 33° |
| 2026-04-22 07:32 | 29.69541 | -78.28974 | 35268 ft | 501 kts | 33° |
| 2026-04-22 07:33 | 29.74915 | -78.23866 | 35251 ft | 501 kts | 33° |
| 2026-04-22 07:33 | 29.80266 | -78.18781 | 35258 ft | 501 kts | 33° |
| 2026-04-22 07:34 | 29.85644 | -78.13672 | 35269 ft | 500 kts | 33° |
| 2026-04-22 07:34 | 29.91015 | -78.08564 | 35252 ft | 500 kts | 33° |
| 2026-04-22 07:35 | 29.96349 | -78.03485 | 35251 ft | 500 kts | 33° |
| 2026-04-22 07:35 | 30.01827 | -77.98559 | 35273 ft | 494 kts | 26° |
| 2026-04-22 07:36 | 30.07630 | -77.94345 | 35265 ft | 492 kts | 25° |
| 2026-04-22 07:36 | 30.13468 | -77.90186 | 35254 ft | 492 kts | 25° |
| 2026-04-22 07:37 | 30.19255 | -77.86012 | 35260 ft | 493 kts | 25° |
| 2026-04-22 07:37 | 30.25072 | -77.81775 | 35252 ft | 493 kts | 25° |
| 2026-04-22 07:38 | 30.30879 | -77.77531 | 35264 ft | 493 kts | 26° |
| 2026-04-22 07:38 | 30.36656 | -77.73304 | 35261 ft | 493 kts | 26° |
| 2026-04-22 07:39 | 30.42451 | -77.69059 | 35271 ft | 493 kts | 25° |
| 2026-04-22 07:39 | 30.48256 | -77.64803 | 35278 ft | 492 kts | 25° |
| 2026-04-22 07:40 | 30.54025 | -77.60567 | 35261 ft | 492 kts | 25° |
| 2026-04-22 07:40 | 30.59808 | -77.56314 | 35268 ft | 492 kts | 25° |
| 2026-04-22 07:41 | 30.65591 | -77.52055 | 35271 ft | 491 kts | 25° |
| 2026-04-22 07:41 | 30.71331 | -77.47822 | 35261 ft | 491 kts | 25° |
| 2026-04-22 07:42 | 30.77099 | -77.43562 | 35261 ft | 490 kts | 25° |
| 2026-04-22 07:42 | 30.82874 | -77.39290 | 35268 ft | 490 kts | 25° |
| 2026-04-22 07:43 | 30.88630 | -77.35027 | 35284 ft | 490 kts | 25° |
| 2026-04-22 07:43 | 30.94340 | -77.30792 | 35274 ft | 490 kts | 25° |
| 2026-04-22 07:44 | 31.00083 | -77.26526 | 35283 ft | 489 kts | 25° |
| 2026-04-22 07:44 | 31.05823 | -77.22256 | 35284 ft | 489 kts | 25° |
| 2026-04-22 07:45 | 31.11567 | -77.17976 | 35270 ft | 489 kts | 25° |
| 2026-04-22 07:45 | 31.17308 | -77.13693 | 35281 ft | 489 kts | 25° |
| 2026-04-22 07:46 | 31.23033 | -77.09414 | 35279 ft | 489 kts | 25° |
| 2026-04-22 07:46 | 31.28762 | -77.05127 | 35279 ft | 488 kts | 25° |
| 2026-04-22 07:47 | 31.34385 | -77.00622 | 35281 ft | 495 kts | 32° |
| 2026-04-22 07:47 | 31.39320 | -76.94961 | 35289 ft | 506 kts | 43° |
| 2026-04-22 07:48 | 31.41387 | -76.91591 | 35271 ft | 515 kts | 55° |
| 2026-04-22 07:48 | 31.42828 | -76.87716 | 35282 ft | 526 kts | 70° |
| 2026-04-22 07:48 | 31.45208 | -76.79772 | 35277 ft | 509 kts | 51° |
| 2026-04-22 07:49 | 31.49539 | -76.73363 | 35293 ft | 501 kts | 42° |
| 2026-04-22 07:49 | 31.54147 | -76.67170 | 35297 ft | 505 kts | 42° |
| 2026-04-22 07:50 | 31.58712 | -76.60867 | 35297 ft | 508 kts | 43° |
| 2026-04-22 07:50 | 31.63206 | -76.54482 | 35288 ft | 511 kts | 44° |
| 2026-04-22 07:51 | 31.67707 | -76.48008 | 35291 ft | 511 kts | 44° |
| 2026-04-22 07:51 | 31.72199 | -76.41543 | 35288 ft | 510 kts | 44° |
| 2026-04-22 07:52 | 31.76686 | -76.35100 | 35279 ft | 507 kts | 44° |
| 2026-04-22 07:52 | 31.81127 | -76.28718 | 35277 ft | 506 kts | 44° |
| 2026-04-22 07:53 | 31.85574 | -76.22314 | 35291 ft | 504 kts | 44° |
| 2026-04-22 07:53 | 31.89258 | -76.16998 | 35283 ft | 503 kts | 44° |
| 2026-04-22 07:54 | 31.94391 | -76.09579 | 35283 ft | 502 kts | 44° |
| 2026-04-22 07:54 | 31.98807 | -76.03184 | 35289 ft | 503 kts | 44° |
| 2026-04-22 07:55 | 32.02469 | -75.97872 | 35286 ft | 503 kts | 44° |
| 2026-04-22 07:55 | 32.06882 | -75.91462 | 35298 ft | 503 kts | 44° |
| 2026-04-22 07:56 | 32.11300 | -75.85033 | 35295 ft | 504 kts | 44° |
| 2026-04-22 07:56 | 32.15718 | -75.78594 | 35299 ft | 505 kts | 44° |
| 2026-04-22 07:57 | 32.20136 | -75.72142 | 35294 ft | 505 kts | 44° |
| 2026-04-22 07:57 | 32.24553 | -75.65680 | 35295 ft | 506 kts | 44° |
| 2026-04-22 07:58 | 32.28974 | -75.59202 | 35296 ft | 506 kts | 44° |
| 2026-04-22 07:58 | 32.33394 | -75.52713 | 35292 ft | 506 kts | 44° |
| 2026-04-22 07:59 | 32.37809 | -75.46221 | 35288 ft | 505 kts | 44° |
| 2026-04-22 07:59 | 32.42182 | -75.39779 | 35298 ft | 504 kts | 44° |
| 2026-04-22 08:00 | 32.46567 | -75.33309 | 35297 ft | 503 kts | 44° |
| 2026-04-22 08:00 | 32.50954 | -75.26826 | 35296 ft | 502 kts | 44° |
| 2026-04-22 08:01 | 32.55322 | -75.20360 | 35291 ft | 502 kts | 45° |
| 2026-04-22 08:01 | 32.59651 | -75.13940 | 35291 ft | 501 kts | 45° |
| 2026-04-22 08:02 | 32.64006 | -75.07470 | 35294 ft | 500 kts | 45° |
| 2026-04-22 08:02 | 32.68345 | -75.01012 | 35292 ft | 500 kts | 45° |
| 2026-04-22 08:03 | 32.72680 | -74.94550 | 35287 ft | 499 kts | 45° |
| 2026-04-22 08:03 | 32.76983 | -74.88124 | 35291 ft | 499 kts | 45° |
| 2026-04-22 08:04 | 32.81306 | -74.81658 | 35284 ft | 499 kts | 45° |
| 2026-04-22 08:04 | 32.85627 | -74.75182 | 35285 ft | 499 kts | 45° |
| 2026-04-22 08:05 | 32.89938 | -74.68710 | 35280 ft | 499 kts | 45° |
| 2026-04-22 08:05 | 32.94221 | -74.62270 | 35287 ft | 498 kts | 45° |